Time;durP1;ratioP1;P1;durP2;ratioP2;P2;SDS_P1;SDS_P2;PMS_P1;PMS_P2;Temp;Humidity;BMP_temperature;BMP_pressure;BME280_temperature;BME280_humidity;BME280_pressure;Samples;Min_cycle;Max_cycle;Signal;HPM_P1;HPM_P2
2022/09/03 00:00:38;;;;;;;1.50;0.60;;;15.90;99.90;;;;;;5073310;28;20045;-70
2022/09/03 00:03:36;;;;;;;1.13;0.60;;;15.80;99.90;;;;;;5072999;28;20271;-70
2022/09/03 00:06:16;;;;;;;1.85;0.65;;;15.80;99.90;;;;;;5072409;28;20381;-70
2022/09/03 00:09:13;;;;;;;2.03;0.80;;;15.80;99.90;;;;;;5073228;28;20032;-70
2022/09/03 00:11:59;;;;;;;1.67;0.70;;;15.80;99.90;;;;;;5072263;28;20040;-70
2022/09/03 00:14:59;;;;;;;1.40;0.70;;;15.70;99.90;;;;;;5072006;28;20513;-70
2022/09/03 00:17:31;;;;;;;2.58;0.75;;;15.70;99.90;;;;;;5059252;28;20052;-70
2022/09/03 00:20:09;;;;;;;1.27;0.60;;;15.70;99.90;;;;;;5072907;28;20086;-70
2022/09/03 00:22:55;;;;;;;1.02;0.65;;;15.60;99.90;;;;;;5071689;28;20048;-70
2022/09/03 00:25:39;;;;;;;1.42;0.65;;;15.60;99.90;;;;;;5072750;28;20040;-70
2022/09/03 00:28:15;;;;;;;2.13;0.70;;;15.60;99.90;;;;;;5072839;28;20488;-70
2022/09/03 00:30:41;;;;;;;1.13;0.57;;;15.50;99.90;;;;;;5057899;28;20036;-70
2022/09/03 00:33:17;;;;;;;2.35;0.70;;;15.50;99.90;;;;;;5072540;28;20056;-71
2022/09/03 00:35:52;;;;;;;1.38;0.63;;;15.50;99.90;;;;;;5072884;28;20186;-71
2022/09/03 00:38:18;;;;;;;1.20;0.57;;;15.40;99.90;;;;;;5070539;28;20485;-71
2022/09/03 00:41:19;;;;;;;1.08;0.60;;;15.40;99.90;;;;;;5072654;28;20127;-70
2022/09/03 00:44:07;;;;;;;1.35;0.50;;;15.40;99.90;;;;;;5072252;28;20056;-71
2022/09/03 00:46:59;;;;;;;1.40;0.57;;;15.40;99.90;;;;;;5071715;28;20156;-71
2022/09/03 00:49:30;;;;;;;1.10;0.60;;;15.40;99.90;;;;;;5071500;28;20082;-71
2022/09/03 00:52:34;;;;;;;1.25;0.70;;;15.30;99.90;;;;;;5072047;28;20545;-71
2022/09/03 00:55:23;;;;;;;2.22;0.60;;;15.40;99.90;;;;;;5069121;28;20059;-71
2022/09/03 00:57:57;;;;;;;1.15;0.60;;;15.30;99.90;;;;;;5072616;28;20095;-71
2022/09/03 01:00:23;;;;;;;1.40;0.80;;;15.30;99.90;;;;;;5072279;28;20362;-71
2022/09/03 01:03:17;;;;;;;1.52;0.60;;;15.30;99.90;;;;;;5069509;28;20191;-70
2022/09/03 01:05:58;;;;;;;2.42;0.70;;;15.20;99.90;;;;;;5071902;28;20503;-70
2022/09/03 01:08:53;;;;;;;2.22;0.70;;;15.20;99.90;;;;;;5066716;28;20080;-70
2022/09/03 01:11:58;;;;;;;1.98;0.70;;;15.20;99.90;;;;;;5066587;28;20451;-70
2022/09/03 01:14:46;;;;;;;1.15;0.60;;;15.20;99.90;;;;;;5064862;28;20067;-70
2022/09/03 01:17:25;;;;;;;3.22;0.70;;;15.10;99.90;;;;;;5071392;28;20040;-70
2022/09/03 01:20:18;;;;;;;4.38;0.80;;;15.10;99.90;;;;;;5071710;28;20521;-70
2022/09/03 01:23:23;;;;;;;1.10;0.60;;;15.10;99.90;;;;;;5070093;28;20377;-70
2022/09/03 01:26:14;;;;;;;1.73;0.60;;;15.10;99.90;;;;;;5059876;28;20062;-70
2022/09/03 01:28:54;;;;;;;1.48;0.65;;;15.10;99.90;;;;;;5071123;28;20048;-70
2022/09/03 01:31:25;;;;;;;1.20;0.60;;;15.10;99.90;;;;;;5071720;28;20048;-70
2022/09/03 01:34:16;;;;;;;2.33;0.70;;;15.10;99.90;;;;;;5071915;28;20044;-70
2022/09/03 01:36:58;;;;;;;1.50;0.73;;;15.10;99.90;;;;;;5071391;28;20041;-70
2022/09/03 01:39:27;;;;;;;2.28;0.60;;;15.10;99.90;;;;;;5071664;28;20052;-70
2022/09/03 01:42:26;;;;;;;1.23;0.60;;;15.10;99.90;;;;;;5070336;28;20048;-70
2022/09/03 01:45:05;;;;;;;2.00;0.60;;;15.10;99.90;;;;;;5071465;28;20040;-70
2022/09/03 01:48:01;;;;;;;2.00;0.60;;;15.10;99.90;;;;;;5070880;28;20055;-70
2022/09/03 01:50:33;;;;;;;2.72;0.73;;;15.20;99.90;;;;;;5059600;28;20113;-70
2022/09/03 01:53:04;;;;;;;1.20;0.60;;;15.10;99.90;;;;;;5070461;28;20056;-70
2022/09/03 01:55:32;;;;;;;0.95;0.50;;;15.10;99.90;;;;;;5069422;28;20056;-70
2022/09/03 01:58:05;;;;;;;1.30;0.68;;;15.20;99.90;;;;;;5070787;28;20508;-70
2022/09/03 02:00:34;;;;;;;1.52;0.60;;;15.10;99.90;;;;;;5069780;28;20036;-70
2022/09/03 02:03:04;;;;;;;1.95;0.77;;;15.20;99.90;;;;;;5070964;28;20050;-70
2022/09/03 02:05:30;;;;;;;1.27;0.50;;;15.20;99.90;;;;;;5070021;28;20044;-70
2022/09/03 02:08:09;;;;;;;1.17;0.60;;;15.20;99.90;;;;;;5071159;28;20466;-70
2022/09/03 02:10:38;;;;;;;0.98;0.52;;;15.20;99.90;;;;;;5069884;28;20452;-70
2022/09/03 02:13:11;;;;;;;0.85;0.50;;;15.20;99.90;;;;;;5069325;28;20040;-70
2022/09/03 02:15:44;;;;;;;1.10;0.50;;;15.20;99.90;;;;;;5070780;28;20047;-72
2022/09/03 02:18:16;;;;;;;1.17;0.60;;;15.20;99.90;;;;;;5070967;28;20473;-70
2022/09/03 02:20:43;;;;;;;1.13;0.50;;;15.10;99.90;;;;;;5080455;28;20462;-70
2022/09/03 02:23:09;;;;;;;2.10;1.02;;;15.10;99.90;;;;;;5065065;28;20052;-70
2022/09/03 02:25:38;;;;;;;1.77;0.60;;;15.10;99.90;;;;;;5069816;28;20062;-71
2022/09/03 02:28:06;;;;;;;1.90;0.70;;;15.10;99.90;;;;;;5067602;28;20037;-70
2022/09/03 02:30:32;;;;;;;2.40;0.80;;;15.10;99.90;;;;;;5073486;28;20091;-71
2022/09/03 02:32:59;;;;;;;1.20;0.50;;;15.00;99.90;;;;;;5075026;28;20095;-71
2022/09/03 02:35:25;;;;;;;0.98;0.55;;;15.00;99.90;;;;;;5074697;28;20264;-71
2022/09/03 02:37:50;;;;;;;2.03;0.60;;;14.90;99.90;;;;;;5075068;28;20047;-71
2022/09/03 02:40:16;;;;;;;2.03;0.63;;;14.90;99.90;;;;;;5075013;28;20045;-71
2022/09/03 02:42:45;;;;;;;1.27;0.63;;;14.90;99.90;;;;;;5074525;28;20381;-70
2022/09/03 02:45:45;;;;;;;1.40;0.50;;;14.90;99.90;;;;;;5074461;28;20055;-71
2022/09/03 02:48:12;;;;;;;0.98;0.57;;;14.90;99.90;;;;;;5066773;28;20113;-71
2022/09/03 02:50:42;;;;;;;1.52;0.50;;;14.80;99.90;;;;;;5074791;28;20461;-71
2022/09/03 02:53:08;;;;;;;1.55;0.60;;;14.80;99.90;;;;;;5072263;28;20807;-71
2022/09/03 02:55:34;;;;;;;1.10;0.57;;;14.80;99.90;;;;;;5061947;28;20144;-71
2022/09/03 02:58:00;;;;;;;1.23;0.68;;;14.80;99.90;;;;;;5073250;28;20123;-71
2022/09/03 03:00:27;;;;;;;1.20;0.60;;;14.80;99.90;;;;;;5074644;28;20044;-70
2022/09/03 03:02:54;;;;;;;0.73;0.50;;;14.80;99.90;;;;;;5074052;28;20488;-70
2022/09/03 03:05:28;;;;;;;1.17;0.70;;;14.80;99.90;;;;;;5074422;28;20041;-71
2022/09/03 03:07:57;;;;;;;1.20;0.60;;;14.80;99.90;;;;;;5074359;28;20040;-71
2022/09/03 03:10:22;;;;;;;1.00;0.60;;;14.80;99.90;;;;;;5074678;28;20051;-71
2022/09/03 03:12:48;;;;;;;3.28;0.70;;;14.80;99.90;;;;;;5074282;28;20041;-70
2022/09/03 03:15:14;;;;;;;0.90;0.50;;;14.80;99.90;;;;;;5073098;28;20098;-71
2022/09/03 03:17:40;;;;;;;0.82;0.50;;;14.90;99.90;;;;;;5073552;28;20134;-71
2022/09/03 03:20:06;;;;;;;3.22;0.85;;;14.90;99.90;;;;;;5072792;28;20052;-71
2022/09/03 03:22:31;;;;;;;1.95;0.63;;;14.80;99.90;;;;;;5073023;28;20063;-71
2022/09/03 03:24:57;;;;;;;1.42;0.70;;;14.90;99.90;;;;;;5073048;28;20377;-70
2022/09/03 03:27:23;;;;;;;1.42;0.73;;;14.80;99.90;;;;;;5071276;28;20388;-71
2022/09/03 03:29:49;;;;;;;1.30;0.70;;;14.80;99.90;;;;;;5069800;28;20369;-71
2022/09/03 03:32:15;;;;;;;1.52;0.80;;;14.80;99.90;;;;;;5071130;28;20052;-71
2022/09/03 03:34:40;;;;;;;1.75;0.70;;;14.80;99.90;;;;;;5071652;28;20048;-71
2022/09/03 03:37:06;;;;;;;2.45;0.75;;;14.80;99.90;;;;;;5072503;28;20170;-70
2022/09/03 03:39:32;;;;;;;1.95;0.70;;;14.80;99.90;;;;;;5074306;28;20174;-70
2022/09/03 03:41:57;;;;;;;2.08;0.70;;;14.80;99.90;;;;;;5072128;28;20133;-71
2022/09/03 03:44:23;;;;;;;1.27;0.75;;;14.70;99.90;;;;;;5073893;28;20048;-71
2022/09/03 03:46:49;;;;;;;2.17;0.80;;;14.70;99.90;;;;;;5072661;28;20116;-71
2022/09/03 03:49:14;;;;;;;1.50;0.80;;;14.70;99.90;;;;;;5073710;28;20048;-71
2022/09/03 03:51:40;;;;;;;1.65;0.82;;;14.70;99.90;;;;;;5072447;28;20048;-71
2022/09/03 03:54:06;;;;;;;1.88;0.70;;;14.70;99.90;;;;;;5072801;28;20483;-71
2022/09/03 03:56:33;;;;;;;2.35;0.80;;;14.70;99.90;;;;;;5073527;28;20068;-70
2022/09/03 03:58:59;;;;;;;1.30;0.70;;;14.70;99.90;;;;;;5073618;28;20137;-70
2022/09/03 04:01:26;;;;;;;2.88;0.80;;;14.70;99.90;;;;;;5072709;28;20072;-70
2022/09/03 04:03:55;;;;;;;2.75;0.90;;;14.60;99.90;;;;;;5073216;28;20566;-70
2022/09/03 04:06:20;;;;;;;2.25;0.90;;;14.60;99.90;;;;;;5073221;28;20048;-70
2022/09/03 04:08:47;;;;;;;1.80;0.88;;;14.60;99.90;;;;;;5072130;28;20427;-70
2022/09/03 04:11:16;;;;;;;2.20;0.70;;;14.60;99.90;;;;;;5073256;28;20062;-71
2022/09/03 04:13:44;;;;;;;1.55;0.80;;;14.60;99.90;;;;;;5071679;28;20032;-70
2022/09/03 04:16:22;;;;;;;1.20;0.70;;;14.50;99.90;;;;;;5071414;28;20527;-71
2022/09/03 04:18:49;;;;;;;1.55;0.77;;;14.50;99.90;;;;;;5072883;28;20046;-70
2022/09/03 04:21:17;;;;;;;1.55;0.82;;;14.40;99.90;;;;;;5070218;28;20028;-71
2022/09/03 04:23:45;;;;;;;2.22;1.00;;;14.40;99.90;;;;;;5072890;28;20046;-70
2022/09/03 04:26:32;;;;;;;2.40;0.90;;;14.30;99.90;;;;;;5071263;28;20048;-71
2022/09/03 04:29:03;;;;;;;1.38;0.70;;;14.30;99.90;;;;;;5052653;28;20057;-71
2022/09/03 04:31:29;;;;;;;1.80;0.90;;;14.20;99.90;;;;;;5069564;28;20036;-71
2022/09/03 04:33:55;;;;;;;3.17;1.00;;;14.20;99.90;;;;;;5072544;28;20443;-70
2022/09/03 04:36:23;;;;;;;2.05;0.85;;;14.20;99.90;;;;;;5072588;28;20043;-71
2022/09/03 04:38:52;;;;;;;2.10;0.90;;;14.10;99.90;;;;;;5071757;28;20082;-71
2022/09/03 04:41:24;;;;;;;2.40;1.00;;;14.10;99.90;;;;;;5072677;28;20040;-71
2022/09/03 04:43:51;;;;;;;1.77;1.00;;;14.10;99.90;;;;;;5072262;28;20527;-71
2022/09/03 04:46:19;;;;;;;3.75;1.10;;;14.00;99.90;;;;;;5071579;28;20080;-71
2022/09/03 04:48:49;;;;;;;1.73;0.88;;;13.90;99.90;;;;;;5070786;28;20377;-71
2022/09/03 04:51:19;;;;;;;3.22;1.20;;;13.90;99.90;;;;;;5072300;28;20115;-70
2022/09/03 04:53:46;;;;;;;2.13;0.90;;;13.90;99.90;;;;;;5071837;28;20041;-71
2022/09/03 04:56:13;;;;;;;1.67;1.00;;;13.90;99.90;;;;;;5072543;28;20084;-70
2022/09/03 04:58:43;;;;;;;2.08;1.10;;;13.80;99.90;;;;;;5071053;28;20045;-70
2022/09/03 05:01:17;;;;;;;2.88;1.02;;;13.80;99.90;;;;;;5071786;28;20385;-71
2022/09/03 05:03:43;;;;;;;3.25;1.00;;;13.80;99.90;;;;;;5070393;28;20043;-70
2022/09/03 05:06:09;;;;;;;1.90;1.00;;;13.80;99.90;;;;;;5071038;28;20036;-70
2022/09/03 05:08:36;;;;;;;1.75;0.90;;;13.80;99.90;;;;;;5071658;28;20040;-69
2022/09/03 05:11:06;;;;;;;2.28;1.13;;;13.90;99.90;;;;;;5070760;28;20033;-70
2022/09/03 05:13:33;;;;;;;1.83;0.95;;;13.90;99.90;;;;;;5071905;28;20044;-70
2022/09/03 05:16:07;;;;;;;2.92;0.90;;;13.90;99.90;;;;;;5071722;28;20376;-70
2022/09/03 05:18:34;;;;;;;3.28;1.10;;;14.00;99.90;;;;;;5068434;28;20052;-71
2022/09/03 05:21:06;;;;;;;2.75;1.00;;;14.00;99.90;;;;;;5071705;28;20415;-70
2022/09/03 05:23:36;;;;;;;2.15;1.20;;;14.10;99.90;;;;;;5070923;28;20091;-70
2022/09/03 05:26:07;;;;;;;2.03;1.08;;;14.20;99.90;;;;;;5068736;28;20063;-70
2022/09/03 05:28:35;;;;;;;2.35;0.90;;;14.20;99.90;;;;;;5071986;28;20048;-70
2022/09/03 05:31:03;;;;;;;2.33;0.90;;;14.30;99.90;;;;;;5069738;28;20425;-71
2022/09/03 05:33:29;;;;;;;2.28;1.00;;;14.30;99.90;;;;;;5071946;28;20093;-71
2022/09/03 05:36:02;;;;;;;2.40;1.20;;;14.50;99.90;;;;;;5071247;28;20040;-72
2022/09/03 05:38:28;;;;;;;1.60;0.90;;;14.50;99.90;;;;;;5070532;28;20121;-70
2022/09/03 05:40:58;;;;;;;1.88;1.15;;;14.60;99.90;;;;;;5071236;28;20040;-71
2022/09/03 05:43:24;;;;;;;2.75;0.90;;;14.60;99.90;;;;;;5071334;28;20041;-70
2022/09/03 05:45:49;;;;;;;2.38;1.00;;;14.70;99.90;;;;;;5071792;28;20043;-70
2022/09/03 05:48:15;;;;;;;2.20;0.95;;;14.80;99.90;;;;;;5069247;28;20503;-70
2022/09/03 05:50:41;;;;;;;1.80;0.90;;;14.80;99.90;;;;;;5071509;28;20342;-71
2022/09/03 05:53:07;;;;;;;2.40;1.02;;;14.90;99.90;;;;;;5070328;28;20447;-71
2022/09/03 05:55:32;;;;;;;2.22;1.05;;;14.90;99.90;;;;;;5069903;28;20381;-70
2022/09/03 05:57:58;;;;;;;1.77;1.02;;;14.90;99.90;;;;;;5071005;28;20052;-70
2022/09/03 06:00:24;;;;;;;1.80;0.90;;;14.90;99.90;;;;;;5071177;28;20047;-71
2022/09/03 06:02:51;;;;;;;2.08;1.05;;;14.90;99.90;;;;;;5068537;28;20123;-71
2022/09/03 06:05:17;;;;;;;1.85;1.00;;;14.90;99.90;;;;;;5069362;28;20051;-71
2022/09/03 06:07:44;;;;;;;1.83;1.10;;;14.90;99.90;;;;;;5069999;28;20043;-70
2022/09/03 06:10:11;;;;;;;2.10;1.20;;;14.90;99.90;;;;;;5071029;28;20040;-70
2022/09/03 06:12:37;;;;;;;2.97;1.02;;;15.00;99.90;;;;;;5071116;28;20040;-72
2022/09/03 06:15:04;;;;;;;2.75;0.98;;;15.00;99.90;;;;;;5071387;28;20044;-71
2022/09/03 06:17:30;;;;;;;1.58;1.02;;;14.90;99.90;;;;;;5069541;28;20049;-70
2022/09/03 06:19:56;;;;;;;2.67;1.05;;;14.90;99.90;;;;;;5069811;28;20047;-71
2022/09/03 06:22:24;;;;;;;2.65;1.17;;;14.90;99.90;;;;;;5070679;28;20055;-72
2022/09/03 06:24:50;;;;;;;1.67;1.00;;;14.90;99.90;;;;;;5069910;28;20090;-71
2022/09/03 06:27:15;;;;;;;2.97;1.20;;;15.00;99.90;;;;;;5070782;28;20052;-71
2022/09/03 06:29:41;;;;;;;2.65;1.10;;;15.00;99.90;;;;;;5070016;28;20044;-71
2022/09/03 06:32:08;;;;;;;2.03;1.20;;;15.10;99.90;;;;;;5069202;28;20488;-71
2022/09/03 06:34:33;;;;;;;1.83;1.10;;;15.20;99.90;;;;;;5069232;28;20051;-71
2022/09/03 06:36:59;;;;;;;1.35;0.90;;;15.30;99.90;;;;;;5069752;28;20481;-71
2022/09/03 06:39:25;;;;;;;2.70;0.90;;;15.40;99.90;;;;;;5070885;28;20516;-71
2022/09/03 06:41:51;;;;;;;2.95;1.15;;;15.50;99.90;;;;;;5070722;28;20054;-71
2022/09/03 06:44:17;;;;;;;2.20;1.20;;;15.60;99.90;;;;;;5070706;28;20056;-71
2022/09/03 06:46:43;;;;;;;2.33;1.00;;;15.80;99.90;;;;;;5069227;28;20097;-65
2022/09/03 06:49:10;;;;;;;2.05;1.00;;;15.90;99.90;;;;;;5069344;28;20044;-65
2022/09/03 06:51:37;;;;;;;1.88;1.00;;;16.00;99.90;;;;;;5070279;28;20074;-64
2022/09/03 06:54:09;;;;;;;3.15;0.95;;;16.10;99.90;;;;;;5070558;28;20040;-63
2022/09/03 06:56:36;;;;;;;2.05;1.10;;;16.20;99.90;;;;;;5070952;28;20048;-64
2022/09/03 06:59:13;;;;;;;3.35;0.90;;;16.30;99.90;;;;;;5070581;28;20175;-63
2022/09/03 07:01:40;;;;;;;1.55;0.80;;;16.40;99.90;;;;;;5065060;28;20033;-63
2022/09/03 07:04:07;;;;;;;2.28;1.10;;;16.60;99.90;;;;;;5069548;28;20159;-63
2022/09/03 07:06:38;;;;;;;1.88;1.00;;;16.70;99.90;;;;;;5070345;28;20044;-63
2022/09/03 07:09:05;;;;;;;2.45;0.90;;;16.80;99.90;;;;;;5070572;28;20047;-63
2022/09/03 07:11:32;;;;;;;1.25;0.75;;;16.90;99.90;;;;;;5052687;28;20052;-63
2022/09/03 07:13:59;;;;;;;1.48;0.93;;;16.90;99.90;;;;;;5070677;28;20500;-63
2022/09/03 07:16:27;;;;;;;3.83;0.90;;;17.00;99.90;;;;;;5072449;28;20053;-63
2022/09/03 07:18:54;;;;;;;2.65;1.10;;;17.10;99.90;;;;;;5064829;28;20045;-63
2022/09/03 07:21:22;;;;;;;1.67;0.90;;;17.20;99.90;;;;;;5058038;28;20037;-64
2022/09/03 07:23:51;;;;;;;1.65;0.90;;;17.30;99.90;;;;;;5074312;28;20102;-63
2022/09/03 07:26:22;;;;;;;2.65;0.90;;;17.40;99.90;;;;;;5073017;28;20040;-63
2022/09/03 07:28:48;;;;;;;1.52;0.90;;;17.50;99.90;;;;;;5059712;28;20045;-64
2022/09/03 07:31:21;;;;;;;1.63;0.70;;;17.60;99.90;;;;;;5057004;28;20037;-64
2022/09/03 07:33:47;;;;;;;1.95;0.80;;;17.70;99.90;;;;;;5054020;28;20107;-64
2022/09/03 07:36:16;;;;;;;4.18;0.80;;;17.80;99.90;;;;;;5053847;28;20044;-64
2022/09/03 07:38:44;;;;;;;1.77;0.90;;;17.90;99.90;;;;;;5053827;28;20044;-63
2022/09/03 07:41:11;;;;;;;2.22;1.00;;;18.00;99.90;;;;;;5053608;28;20060;-64
2022/09/03 07:43:39;;;;;;;2.00;0.80;;;18.10;99.90;;;;;;5069798;28;20036;-64
2022/09/03 07:46:06;;;;;;;2.30;0.90;;;18.20;99.90;;;;;;5053943;28;20048;-64
2022/09/03 07:48:32;;;;;;;2.28;0.70;;;18.20;99.90;;;;;;5064309;28;20116;-64
2022/09/03 07:51:02;;;;;;;2.47;0.90;;;18.30;99.90;;;;;;5054103;28;20133;-65
2022/09/03 07:53:29;;;;;;;1.63;0.80;;;18.40;99.90;;;;;;5070405;28;20095;-64
2022/09/03 07:56:05;;;;;;;1.73;0.80;;;18.50;99.90;;;;;;5069554;28;20206;-64
2022/09/03 07:58:32;;;;;;;1.60;0.98;;;18.60;99.90;;;;;;5069030;28;20037;-64
2022/09/03 08:01:02;;;;;;;1.35;0.70;;;18.80;99.90;;;;;;5061331;28;20099;-64
2022/09/03 08:03:28;;;;;;;1.60;0.70;;;18.90;99.90;;;;;;5060498;28;20131;-65
2022/09/03 08:05:54;;;;;;;2.08;0.90;;;19.00;99.90;;;;;;5059373;28;20525;-64
2022/09/03 08:08:20;;;;;;;2.45;0.85;;;19.10;99.90;;;;;;5064991;28;20052;-64
2022/09/03 08:10:46;;;;;;;2.78;0.73;;;19.20;99.90;;;;;;5066071;28;20049;-64
2022/09/03 08:13:12;;;;;;;2.15;0.73;;;19.30;99.90;;;;;;5065436;28;20511;-66
2022/09/03 08:15:39;;;;;;;1.30;0.80;;;19.30;99.90;;;;;;5052602;28;20044;-65
2022/09/03 08:18:05;;;;;;;1.52;0.80;;;19.40;99.90;;;;;;5061989;28;20044;-64
2022/09/03 08:20:31;;;;;;;1.83;0.80;;;19.50;99.90;;;;;;5061625;28;20351;-64
2022/09/03 08:23:01;;;;;;;1.48;0.70;;;19.60;99.90;;;;;;5067441;28;20557;-64
2022/09/03 08:25:28;;;;;;;2.08;0.70;;;19.70;99.90;;;;;;5061634;28;20343;-63
2022/09/03 08:27:53;;;;;;;2.60;0.80;;;19.80;99.90;;;;;;5055608;28;20044;-64
2022/09/03 08:30:20;;;;;;;2.10;0.80;;;19.80;99.90;;;;;;5052779;28;20045;-64
2022/09/03 08:32:46;;;;;;;1.77;0.80;;;19.90;99.90;;;;;;5051712;28;20131;-63
2022/09/03 08:35:12;;;;;;;3.30;0.77;;;20.00;99.90;;;;;;5057230;28;20124;-63
2022/09/03 08:37:38;;;;;;;1.77;0.75;;;20.10;99.90;;;;;;5067167;28;20123;-64
2022/09/03 08:40:05;;;;;;;1.45;0.70;;;20.10;99.90;;;;;;5071666;28;20037;-63
2022/09/03 08:42:49;;;;;;;2.80;0.90;;;20.30;99.90;;;;;;5070931;28;20052;-62
2022/09/03 08:45:18;;;;;;;1.42;0.80;;;20.40;99.90;;;;;;5069880;28;20087;-63
2022/09/03 08:47:50;;;;;;;1.30;0.70;;;20.50;99.90;;;;;;5071326;28;20048;-63
2022/09/03 08:50:34;;;;;;;1.23;0.70;;;20.60;99.90;;;;;;5070920;28;20476;-63
2022/09/03 08:53:23;;;;;;;2.33;0.80;;;20.60;99.90;;;;;;5072347;28;20055;-63
2022/09/03 08:56:10;;;;;;;2.72;0.85;;;20.80;99.90;;;;;;5071737;28;20147;-63
2022/09/03 08:58:37;;;;;;;;;;;20.80;99.90;;;;;;5072676;28;20063;-63
2022/09/03 09:01:30;;;;;;;1.52;0.75;;;20.90;99.90;;;;;;5072486;28;19920;-63
2022/09/03 09:04:15;;;;;;;1.52;0.70;;;21.00;99.90;;;;;;5071300;28;20055;-63
2022/09/03 09:07:07;;;;;;;1.95;0.60;;;21.20;99.90;;;;;;5072263;28;20430;-62
2022/09/03 09:09:48;;;;;;;2.45;0.80;;;21.30;99.90;;;;;;5072263;28;20044;-63
2022/09/03 09:12:47;;;;;;;2.70;0.80;;;21.40;99.90;;;;;;5072006;28;20083;-63
2022/09/03 09:15:23;;;;;;;1.67;0.82;;;21.60;99.90;;;;;;5071702;28;20048;-62
2022/09/03 09:18:12;;;;;;;2.40;0.70;;;21.60;99.90;;;;;;5071122;28;20052;-62
2022/09/03 09:20:41;;;;;;;2.33;0.82;;;21.80;99.90;;;;;;5071363;28;20048;-63
2022/09/03 09:23:21;;;;;;;2.95;0.80;;;21.90;99.90;;;;;;5071599;28;20051;-63
2022/09/03 09:25:49;;;;;;;1.38;0.70;;;22.00;99.90;;;;;;5071148;28;20090;-63
2022/09/03 09:28:23;;;;;;;1.77;0.80;;;22.10;99.90;;;;;;5071540;28;20047;-63
2022/09/03 09:30:53;;;;;;;1.88;0.90;;;22.30;99.90;;;;;;5071633;28;20072;-63
2022/09/03 09:33:19;;;;;;;2.10;0.80;;;22.40;99.90;;;;;;5070907;28;20082;-62
2022/09/03 09:35:46;;;;;;;3.67;0.90;;;22.50;99.90;;;;;;5071102;28;20048;-63
2022/09/03 09:38:13;;;;;;;1.20;0.50;;;22.60;99.90;;;;;;5071445;28;20044;-63
2022/09/03 09:40:44;;;;;;;1.38;0.70;;;22.70;99.90;;;;;;5071133;28;20044;-62
2022/09/03 09:43:15;;;;;;;1.30;0.63;;;22.80;99.90;;;;;;5071411;28;20041;-63
2022/09/03 09:45:43;;;;;;;1.63;0.63;;;22.80;99.90;;;;;;5070904;28;20047;-63
2022/09/03 09:48:31;;;;;;;1.77;0.60;;;22.90;99.90;;;;;;5070587;28;20048;-63
2022/09/03 09:51:24;;;;;;;1.80;0.70;;;23.00;99.90;;;;;;5071410;28;20036;-62
2022/09/03 09:54:13;;;;;;;1.85;0.80;;;23.00;99.90;;;;;;5067389;28;20435;-62
2022/09/03 09:56:41;;;;;;;2.65;0.90;;;23.10;99.90;;;;;;5071074;28;20119;-63
2022/09/03 09:59:09;;;;;;;1.13;0.63;;;23.30;99.90;;;;;;5070991;28;20094;-63
2022/09/03 10:01:45;;;;;;;1.33;0.70;;;23.30;99.90;;;;;;5070826;28;20050;-63
2022/09/03 10:04:23;;;;;;;1.33;0.60;;;23.40;99.90;;;;;;5070092;28;20044;-64
2022/09/03 10:07:18;;;;;;;2.17;0.80;;;23.50;99.90;;;;;;5071137;28;20097;-63
2022/09/03 10:09:44;;;;;;;2.08;0.70;;;23.60;99.90;;;;;;5070748;28;20465;-64
2022/09/03 10:12:26;;;;;;;1.73;0.70;;;23.60;99.90;;;;;;5071132;28;20119;-64
2022/09/03 10:15:27;;;;;;;2.17;0.95;;;23.60;99.70;;;;;;5070946;28;20354;-63
2022/09/03 10:18:27;;;;;;;1.83;0.68;;;23.60;99.60;;;;;;5068352;28;20133;-64
2022/09/03 10:21:19;;;;;;;2.92;0.80;;;23.60;99.40;;;;;;5071236;28;20128;-63
2022/09/03 10:24:14;;;;;;;3.05;0.70;;;23.60;99.70;;;;;;5070684;28;20091;-64
2022/09/03 10:26:44;;;;;;;2.00;0.90;;;23.60;99.00;;;;;;5055720;28;20080;-63
2022/09/03 10:29:15;;;;;;;2.92;0.73;;;23.60;99.20;;;;;;5050813;28;20045;-62
2022/09/03 10:32:03;;;;;;;0.85;0.55;;;23.60;99.10;;;;;;5050314;28;20049;-63
2022/09/03 10:34:47;;;;;;;2.38;0.82;;;23.70;98.00;;;;;;5050507;28;20428;-63
2022/09/03 10:37:34;;;;;;;2.47;0.65;;;23.70;98.20;;;;;;5050821;28;20094;-62
2022/09/03 10:40:19;;;;;;;1.48;0.70;;;23.70;98.20;;;;;;5050345;28;20048;-65
2022/09/03 10:43:03;;;;;;;1.40;0.63;;;23.70;97.80;;;;;;5059342;28;20415;-64
2022/09/03 10:45:35;;;;;;;2.08;0.60;;;23.80;98.30;;;;;;5070924;28;20800;-64
2022/09/03 10:48:29;;;;;;;1.27;0.60;;;23.80;98.00;;;;;;5069455;28;20132;-64
2022/09/03 10:51:10;;;;;;;3.20;0.80;;;23.90;97.80;;;;;;5071779;28;20450;-64
2022/09/03 10:54:04;;;;;;;2.65;0.68;;;24.00;97.40;;;;;;5074452;28;20087;-64
2022/09/03 10:56:52;;;;;;;2.47;0.85;;;24.10;97.60;;;;;;5074742;28;20052;-64
2022/09/03 10:59:37;;;;;;;3.10;0.70;;;24.10;96.80;;;;;;5073321;28;20048;-63
2022/09/03 11:02:37;;;;;;;3.13;0.90;;;24.10;96.60;;;;;;5074151;28;20051;-64
2022/09/03 11:05:15;;;;;;;1.55;0.68;;;24.10;96.20;;;;;;5074407;28;20127;-64
2022/09/03 11:07:57;;;;;;;2.88;0.60;;;24.10;96.80;;;;;;5074666;28;20044;-64
2022/09/03 11:10:34;;;;;;;1.67;0.77;;;24.10;96.60;;;;;;5074360;28;20429;-65
2022/09/03 11:13:17;;;;;;;1.50;0.60;;;24.20;95.90;;;;;;5074092;28;20044;-64
2022/09/03 11:15:58;;;;;;;2.72;0.65;;;24.10;95.70;;;;;;5073840;28;20056;-65
2022/09/03 11:18:37;;;;;;;3.47;0.60;;;24.10;95.20;;;;;;5073553;28;20079;-64
2022/09/03 11:21:06;;;;;;;2.45;0.73;;;24.20;95.40;;;;;;5074274;28;20459;-64
2022/09/03 11:23:36;;;;;;;2.25;0.60;;;24.20;95.70;;;;;;5073810;28;20110;-64
2022/09/03 11:26:11;;;;;;;1.73;0.95;;;24.20;95.70;;;;;;5073947;28;20044;-63
2022/09/03 11:28:49;;;;;;;1.80;0.70;;;24.30;95.60;;;;;;5073985;28;20083;-62
2022/09/03 11:31:56;;;;;;;1.88;0.70;;;24.40;95.60;;;;;;5073678;28;20407;-63
2022/09/03 11:34:43;;;;;;;1.33;0.70;;;24.40;95.60;;;;;;5065484;28;20139;-64
2022/09/03 11:37:26;;;;;;;1.20;0.70;;;24.50;95.30;;;;;;5073607;28;20424;-63
2022/09/03 11:40:17;;;;;;;1.75;0.63;;;24.50;94.60;;;;;;5073027;28;20072;-64
2022/09/03 11:42:44;;;;;;;1.58;0.80;;;24.60;94.40;;;;;;5072125;28;20040;-64
2022/09/03 11:45:30;;;;;;;2.17;0.60;;;24.50;94.70;;;;;;5063089;28;20083;-63
2022/09/03 11:47:56;;;;;;;1.90;0.63;;;24.50;94.00;;;;;;5066399;28;20044;-64
2022/09/03 11:50:28;;;;;;;1.70;0.65;;;24.50;94.30;;;;;;5063878;28;20090;-63
2022/09/03 11:53:06;;;;;;;1.55;0.70;;;24.50;94.00;;;;;;5072309;28;20046;-64
2022/09/03 11:55:52;;;;;;;2.80;0.77;;;24.50;93.80;;;;;;5069808;28;20067;-63
2022/09/03 11:58:25;;;;;;;1.30;0.60;;;24.50;93.10;;;;;;5071536;28;20091;-63
2022/09/03 12:00:53;;;;;;;1.85;0.80;;;24.50;93.40;;;;;;5072184;28;20047;-64
2022/09/03 12:03:27;;;;;;;1.98;0.70;;;24.40;93.50;;;;;;5071903;28;20036;-63
2022/09/03 12:06:23;;;;;;;2.03;0.75;;;24.50;93.30;;;;;;5072820;28;20051;-63
2022/09/03 12:08:58;;;;;;;2.53;0.70;;;24.50;93.20;;;;;;5072426;28;20198;-63
2022/09/03 12:11:45;;;;;;;1.65;0.75;;;24.50;93.30;;;;;;5074053;28;20047;-63
2022/09/03 12:14:18;;;;;;;1.95;0.70;;;24.50;92.90;;;;;;5093048;28;20130;-63
2022/09/03 12:16:56;;;;;;;1.83;0.68;;;24.50;93.10;;;;;;5091176;28;20040;-63
2022/09/03 12:19:53;;;;;;;1.75;0.80;;;24.60;92.70;;;;;;5072284;28;20385;-63
2022/09/03 12:22:21;;;;;;;1.50;0.70;;;24.70;92.50;;;;;;5064381;28;20131;-65
2022/09/03 12:24:47;;;;;;;0.85;0.50;;;24.70;92.90;;;;;;5071692;28;20083;-66
2022/09/03 12:27:24;;;;;;;1.85;0.80;;;24.80;92.80;;;;;;5072895;28;20048;-65
2022/09/03 12:29:58;;;;;;;2.40;0.70;;;24.90;92.10;;;;;;5072772;28;20044;-65
2022/09/03 12:32:35;;;;;;;2.50;0.60;;;24.90;92.40;;;;;;5069621;28;20446;-64
2022/09/03 12:35:15;;;;;;;1.02;0.55;;;24.80;92.40;;;;;;5069499;28;20439;-64
2022/09/03 12:37:44;;;;;;;1.65;0.70;;;24.80;92.20;;;;;;5070710;28;20425;-64
2022/09/03 12:40:20;;;;;;;1.67;0.65;;;24.80;92.20;;;;;;5069117;28;20044;-64
2022/09/03 12:42:46;;;;;;;1.00;0.68;;;24.80;92.10;;;;;;5070399;28;20105;-64
2022/09/03 12:45:15;;;;;;;2.25;0.70;;;24.70;92.10;;;;;;5071583;28;20040;-64
2022/09/03 12:47:42;;;;;;;1.17;0.60;;;24.80;92.20;;;;;;5070213;28;20562;-63
2022/09/03 12:50:09;;;;;;;1.38;0.70;;;24.90;92.20;;;;;;5071068;28;20029;-64
2022/09/03 12:52:40;;;;;;;1.80;0.70;;;24.90;92.00;;;;;;5051472;28;20045;-64
2022/09/03 12:55:11;;;;;;;1.23;0.70;;;25.00;92.00;;;;;;5060279;28;20051;-64
2022/09/03 12:58:07;;;;;;;1.35;0.73;;;25.30;92.10;;;;;;5070583;28;20059;-65
2022/09/03 13:00:36;;;;;;;2.10;0.70;;;25.40;91.40;;;;;;5055850;28;20057;-64
2022/09/03 13:03:25;;;;;;;2.10;0.60;;;25.20;91.70;;;;;;5071004;28;20093;-64
2022/09/03 13:05:58;;;;;;;2.08;0.57;;;25.10;91.50;;;;;;5070425;28;20140;-64
2022/09/03 13:08:31;;;;;;;2.17;0.70;;;24.90;91.70;;;;;;5058999;28;20052;-64
2022/09/03 13:11:01;;;;;;;2.33;0.60;;;24.90;91.60;;;;;;5050598;28;20257;-64
2022/09/03 13:13:39;;;;;;;1.15;0.65;;;24.80;91.60;;;;;;5067500;28;20044;-64
2022/09/03 13:16:08;;;;;;;1.15;0.60;;;24.80;91.60;;;;;;5070845;28;20451;-65
2022/09/03 13:19:14;;;;;;;1.10;0.60;;;24.80;91.60;;;;;;5069628;28;20049;-65
2022/09/03 13:22:04;;;;;;;1.90;0.60;;;24.80;91.60;;;;;;5070518;28;20080;-63